• Join FlightAware (Why Join?)
  • Login
  • US Flag 
03:40AM EDT


 

Airport Tracker/Info


-or-


 

Live Flight TrackerFlight Track Log ✈ N39RC ✈ 15-May-2013 ✈ KBED - KABE

Flight Track Log - Related Links

Times and Time Zones

All times are in EDT time to prevent confusion due to time zone crossing. See the N39RC flight status page for this flight to view local times or setup timezone preferences in your user account.

Time Position Orientation Groundspeed Altitude Reporting Facility
EDT Latitude Longitude Course Direction KTS MPH feet Rate Location/Type
09:31PM 42.4667 -71.3500 266° West 219 252 2,100  Level KA90
09:32PM 42.4167 -71.4000 216° Southwest 214 246 4,600 2,280 Climbing KA90
09:33PM 42.3608 -71.4708 223° Southwest 253 291 6,900 2,040 Climbing Boston Center
09:34PM 42.3114 -71.5278 220° Southwest 265 305 8,900 2,100 Climbing Boston Center
09:35PM 42.2828 -71.6150 246° West 252 290 11,100 2,040 Climbing Boston Center
09:36PM 42.2478 -71.6856 236° Southwest 268 308 13,000 1,680 Climbing Boston Center
09:37PM 42.1983 -71.7900 237° Southwest 283 326 14,500 720 Climbing Boston Center
09:38PM 42.1636 -71.8828 243° Southwest 300 345 14,500  Level Boston Center
09:39PM 42.1139 -71.9978 240° Southwest 323 372 14,500  Level Boston Center
09:40PM 42.0769 -72.0933 243° Southwest 323 372 14,500  Level Boston Center
09:41PM 42.0314 -72.2053 241° Southwest 328 377 14,500  Level Boston Center
09:42PM 41.9981 -72.2947 243° Southwest 315 362 14,500  Level Boston Center
09:43PM 41.9544 -72.4039 242° Southwest 309 356 14,500  Level Boston Center
09:44PM 41.9189 -72.4931 242° Southwest 309 356 14,500  Level Boston Center
09:45PM 41.8731 -72.5989 240° Southwest 309 356 14,500  Level Boston Center
09:46PM 41.8311 -72.7019 241° Southwest 309 356 14,500  Level Boston Center
09:47PM 41.7914 -72.8019 242° Southwest 309 356 14,500  Level Boston Center
09:48PM 41.7492 -72.9047 241° Southwest 309 356 14,500  Level Boston Center
09:49PM 41.7069 -73.0072 241° Southwest 309 356 14,500  Level Boston Center
09:50PM 41.6647 -73.1069 240° Southwest 309 356 14,500  Level Boston Center
09:51PM 41.6247 -73.2067 242° Southwest 309 356 14,500  Level Boston Center
09:52PM 41.5800 -73.3142 241° Southwest 309 356 14,500  Level Boston Center
09:53PM 41.5311 -73.4244 239° Southwest 309 356 14,500  Level Boston Center
09:54PM 41.4908 -73.5236 242° Southwest 309 356 14,500  Level Boston Center
09:55PM 41.4481 -73.6225 240° Southwest 309 356 14,500  Level Boston Center
09:56PM 41.4053 -73.7214 240° Southwest 309 356 14,500  Level Boston Center
09:57PM 41.3667 -73.8167 242° Southwest 307 353 14,500  Level New York TRACON
09:58PM 41.3167 -73.9167 236° Southwest 312 359 14,500  Level New York TRACON
09:59PM 41.2833 -74.0167 246° West 315 362 14,500  Level New York TRACON
10:00PM 41.2333 -74.1167 236° Southwest 314 361 14,500  Level New York TRACON
10:01PM 41.2000 -74.2167 246° West 314 361 14,500  Level New York TRACON
10:02PM 41.1500 -74.3167 236° Southwest 308 354 14,500  Level New York TRACON
10:03PM 41.1000 -74.4167 236° Southwest 309 356 14,500  Level New York TRACON
10:04PM 41.0667 -74.5167 246° West 312 359 14,500 -300 Level New York TRACON
10:05PM 41.0167 -74.6167 236° Southwest 307 353 14,000 -1,500 Descending New York TRACON
10:06PM 40.9833 -74.7000 242° Southwest 286 329 11,700 -2,580 Descending New York TRACON
10:07PM 40.9653 -74.7528 246° West 274 315 10,200 -2,280 Descending New York Center
10:08PM 40.9253 -74.8300 236° Southwest 274 315 8,100 -2,040 Descending New York Center
10:09PM 40.8872 -74.9019 235° Southwest 256 295 6,100 -1,740 Descending New York Center
10:10PM 40.8572 -74.9853 245° Southwest 234 269 4,600 -1,020 Descending New York Center
10:11PM 40.8258 -75.0492 237° Southwest 204 235 4,100 -600 Descending New York Center
10:12PM 40.8003 -75.1186 244° Southwest 204 235 3,500 -360 Descending New York Center
10:13PM 40.7792 -75.1831 247° West 204 235 3,500 60 Level New York Center
10:14PM 40.7858 -75.1700 56° Northeast 204 235 3,700 -300 Climbing New York Center
10:15PM 40.7858 -75.1700 360° North 204 235 2,900 -900 Descending New York Center
10:16PM 40.7081 -75.3511 241° Southwest 477 549 1,900 -900 Descending New York Center
10:17PM 40.6861 -75.3850 230° Southwest 284 327 1,200 -720 Descending New York Center
10:19PM 40.6500 -75.4333 237° Southwest  Level FlightAware Approximate
10:26PM 40.6524 -75.4404 237° Southwest  Level Estimated
10:27PM 40.6500 -75.4333 237° Southwest  Level FlightAware Approximate